Time;durP1;ratioP1;P1;durP2;ratioP2;P2;SDS_P1;SDS_P2;PMS_P1;PMS_P2;Temp;Humidity;BMP_temperature;BMP_pressure;BME280_temperature;BME280_humidity;BME280_pressure;Samples;Min_cycle;Max_cycle;Signal;HPM_P1;HPM_P2
2023/09/28 00:00:39;;;;;;;12.82;9.32;;;384.10;2329.60;;;;;;5071444;28;20075;-57
2023/09/28 00:03:09;;;;;;;11.93;8.52;;;384.10;2329.60;;;;;;5071824;28;20056;-58
2023/09/28 00:05:35;;;;;;;13.65;8.77;;;359.30;2329.60;;;;;;5082700;28;20026;-59
2023/09/28 00:08:02;;;;;;;14.02;9.82;;;384.00;2329.60;;;;;;5071847;28;20076;-58
2023/09/28 00:10:28;;;;;;;14.32;10.07;;;384.10;2329.60;;;;;;5071289;28;20029;-57
2023/09/28 00:12:54;;;;;;;13.98;9.05;;;384.10;2329.60;;;;;;5071941;28;20036;-57
2023/09/28 00:15:22;;;;;;;12.98;10.05;;;384.00;2329.60;;;;;;5059758;28;20826;-58
2023/09/28 00:17:48;;;;;;;12.55;9.85;;;384.00;2329.60;;;;;;5072623;28;20028;-58
2023/09/28 00:20:18;;;;;;;14.55;8.95;;;384.00;2329.60;;;;;;5078660;28;20544;-58
2023/09/28 00:22:49;;;;;;;13.75;9.18;;;384.10;2329.60;;;;;;5088114;28;20024;-59
2023/09/28 00:25:16;;;;;;;16.15;9.35;;;359.30;2329.60;;;;;;5069649;28;20555;-58
2023/09/28 00:27:47;;;;;;;12.52;8.63;;;359.30;2329.60;;;;;;5071837;28;20032;-57
2023/09/28 00:30:15;;;;;;;14.95;10.23;;;359.30;2329.60;;;;;;5071688;28;20029;-57
2023/09/28 00:32:44;;;;;;;15.27;10.35;;;384.00;2329.60;;;;;;5073004;28;20017;-57
2023/09/28 00:35:10;;;;;;;13.52;10.10;;;384.00;2329.60;;;;;;5072169;28;20024;-57
2023/09/28 00:37:35;;;;;;;11.90;8.63;;;384.00;2329.60;;;;;;5086115;28;20424;-58
2023/09/28 00:40:09;;;;;;;10.90;8.90;;;384.00;2329.60;;;;;;5089391;28;20031;-58
2023/09/28 00:42:34;;;;;;;11.15;9.80;;;359.20;2329.60;;;;;;5088193;28;20458;-58
2023/09/28 00:45:00;;;;;;;14.52;10.10;;;359.10;2329.60;;;;;;5066756;28;20100;-57
2023/09/28 00:47:26;;;;;;;15.15;8.95;;;359.10;2329.60;;;;;;5086998;28;20024;-58
2023/09/28 00:49:52;;;;;;;13.63;10.23;;;359.10;2329.60;;;;;;5090689;28;20028;-58
2023/09/28 00:52:18;;;;;;;16.42;9.55;;;359.10;2329.60;;;;;;5089825;28;20024;-57
2023/09/28 00:54:48;;;;;;;14.68;10.63;;;359.10;2329.60;;;;;;5078054;28;20031;-58
2023/09/28 00:57:15;;;;;;;11.80;9.38;;;359.20;2329.60;;;;;;5083504;28;20024;-59
2023/09/28 00:59:41;;;;;;;14.05;9.73;;;359.10;2329.60;;;;;;5090753;28;20020;-58
2023/09/28 01:02:08;;;;;;;12.70;9.82;;;359.10;2329.60;;;;;;5090705;28;20565;-58
2023/09/28 01:04:35;;;;;;;13.63;10.35;;;359.10;2329.60;;;;;;5090697;28;20093;-59
2023/09/28 01:07:01;;;;;;;12.88;10.05;;;359.10;2329.60;;;;;;5090403;28;20021;-58
2023/09/28 01:09:28;;;;;;;15.90;10.60;;;359.00;2329.60;;;;;;5090120;28;20027;-57
2023/09/28 01:11:55;;;;;;;13.98;9.65;;;359.00;2329.60;;;;;;5090519;28;20087;-58
2023/09/28 01:14:21;;;;;;;14.88;9.75;;;359.00;2329.60;;;;;;5090322;28;20077;-57
2023/09/28 01:16:47;;;;;;;17.27;10.25;;;359.00;2329.60;;;;;;5090170;28;20032;-58
2023/09/28 01:19:13;;;;;;;15.23;10.77;;;359.00;2329.60;;;;;;5083596;28;20045;-58
2023/09/28 01:21:39;;;;;;;19.55;10.93;;;358.90;2329.60;;;;;;5072715;28;20040;-58
2023/09/28 01:24:06;;;;;;;15.88;10.35;;;358.90;2329.60;;;;;;5089939;28;20487;-57
2023/09/28 01:26:32;;;;;;;17.50;10.38;;;358.80;2329.60;;;;;;5090317;28;20115;-58
2023/09/28 01:28:59;;;;;;;15.98;11.32;;;358.80;2329.60;;;;;;5090946;28;20046;-58
2023/09/28 01:31:24;;;;;;;18.50;10.35;;;358.80;2329.60;;;;;;5089758;28;20035;-59
2023/09/28 01:33:50;;;;;;;14.43;9.95;;;358.90;2329.60;;;;;;5090235;28;20374;-57
2023/09/28 01:36:16;;;;;;;12.50;9.35;;;358.90;2329.60;;;;;;5088759;28;20028;-58
2023/09/28 01:38:50;;;;;;;13.55;10.43;;;358.90;2329.60;;;;;;5090178;28;20047;-57
2023/09/28 01:41:15;;;;;;;17.10;9.23;;;358.90;2329.60;;;;;;5089166;28;20042;-58
2023/09/28 01:43:41;;;;;;;13.20;10.55;;;358.90;2329.60;;;;;;5090259;28;20016;-58
2023/09/28 01:46:07;;;;;;;12.18;8.88;;;359.00;2329.60;;;;;;5089410;28;20377;-59
2023/09/28 01:48:32;;;;;;;14.60;8.98;;;359.00;2329.60;;;;;;5090408;28;20024;-57
2023/09/28 01:51:01;;;;;;;17.83;10.90;;;359.00;2329.60;;;;;;5071261;28;20419;-58
2023/09/28 01:53:27;;;;;;;15.10;10.32;;;359.00;2329.60;;;;;;5066458;28;20020;-58
2023/09/28 01:55:53;;;;;;;15.63;9.63;;;359.00;2329.60;;;;;;5089548;28;20077;-58
2023/09/28 01:58:18;;;;;;;16.45;9.95;;;359.00;2329.60;;;;;;5089532;28;20024;-58
2023/09/28 02:00:46;;;;;;;13.23;9.55;;;358.90;2329.60;;;;;;5089717;28;20036;-57
2023/09/28 02:03:14;;;;;;;14.40;10.65;;;358.90;2329.60;;;;;;5089591;28;20069;-58
2023/09/28 02:05:40;;;;;;;16.83;10.65;;;358.90;2329.60;;;;;;5075537;28;20504;-58
2023/09/28 02:08:06;;;;;;;18.13;10.18;;;358.90;2329.60;;;;;;5089509;28;20024;-58
2023/09/28 02:10:32;;;;;;;14.95;10.63;;;358.90;2329.60;;;;;;5089277;28;20111;-58
2023/09/28 02:12:59;;;;;;;11.35;9.45;;;358.80;2329.60;;;;;;5081038;28;20036;-58
2023/09/28 02:15:25;;;;;;;15.82;10.52;;;358.80;2329.60;;;;;;5083525;28;20021;-58
2023/09/28 02:17:50;;;;;;;15.13;11.18;;;358.80;2329.60;;;;;;5089500;28;20470;-57
2023/09/28 02:20:19;;;;;;;15.30;10.35;;;358.80;2329.60;;;;;;5089035;28;20060;-59
2023/09/28 02:22:46;;;;;;;12.60;10.52;;;358.70;2329.60;;;;;;5083092;28;20048;-58
2023/09/28 02:25:19;;;;;;;15.63;10.13;;;358.70;2329.60;;;;;;5089400;28;20023;-57
2023/09/28 02:27:49;;;;;;;;;;;358.70;2329.60;;;;;;5078273;28;20030;-58
2023/09/28 02:30:19;;;;;;;14.13;10.43;;;358.60;2329.60;;;;;;5080006;28;20006;-57
2023/09/28 02:32:46;;;;;;;15.40;10.38;;;358.50;2329.60;;;;;;5088774;28;20042;-57
2023/09/28 02:35:16;;;;;;;16.58;9.27;;;358.50;2329.60;;;;;;5075579;28;20020;-57
2023/09/28 02:37:48;;;;;;;18.73;10.15;;;358.50;2329.60;;;;;;5089275;28;20016;-57
2023/09/28 02:40:15;;;;;;;12.73;11.30;;;358.60;2329.60;;;;;;5062597;28;20047;-57
2023/09/28 02:42:42;;;;;;;16.65;10.07;;;358.60;2329.60;;;;;;5088770;28;20051;-58
2023/09/28 02:45:11;;;;;;;14.15;10.13;;;358.60;2329.60;;;;;;5088816;28;20020;-58
2023/09/28 02:47:41;;;;;;;15.43;10.32;;;358.60;2329.60;;;;;;5088181;28;20444;-58
2023/09/28 02:50:11;;;;;;;13.60;10.50;;;358.50;2329.60;;;;;;5088880;28;20032;-57
2023/09/28 02:52:41;;;;;;;12.43;10.52;;;358.50;2329.60;;;;;;5088399;28;20023;-58
2023/09/28 02:55:08;;;;;;;18.08;10.20;;;358.50;2329.60;;;;;;5089006;28;20106;-57
2023/09/28 02:57:35;;;;;;;14.40;10.85;;;358.50;2329.60;;;;;;5088664;28;20081;-58
2023/09/28 03:00:11;;;;;;;13.85;9.73;;;358.50;2329.60;;;;;;5088909;28;20066;-58
2023/09/28 03:02:37;;;;;;;14.63;9.82;;;358.50;2329.60;;;;;;5088524;28;20079;-58
2023/09/28 03:05:03;;;;;;;12.65;9.82;;;358.50;2329.60;;;;;;5089049;28;20493;-56
2023/09/28 03:07:29;;;;;;;13.48;9.93;;;358.40;2329.60;;;;;;5069510;28;20024;-58
2023/09/28 03:09:54;;;;;;;14.63;10.90;;;358.40;2329.60;;;;;;5079817;28;20024;-58
2023/09/28 03:12:20;;;;;;;16.88;10.15;;;358.40;2329.60;;;;;;5085989;28;20050;-57
2023/09/28 03:14:46;;;;;;;13.35;10.25;;;358.40;2329.60;;;;;;5077985;28;20067;-58
2023/09/28 03:17:11;;;;;;;16.67;11.25;;;358.40;2329.60;;;;;;5088138;28;20031;-58
2023/09/28 03:19:37;;;;;;;27.40;11.80;;;333.70;2329.60;;;;;;5088156;28;20048;-57
2023/09/28 03:22:04;;;;;;;15.00;12.35;;;333.70;2329.60;;;;;;5088445;28;20039;-58
2023/09/28 03:24:29;;;;;;;16.75;12.18;;;333.60;2329.60;;;;;;5088955;28;20059;-57
2023/09/28 03:26:55;;;;;;;17.92;11.52;;;333.60;2329.60;;;;;;5088104;28;20429;-57
2023/09/28 03:29:21;;;;;;;12.80;9.93;;;333.60;2329.60;;;;;;5078551;28;20020;-57
2023/09/28 03:31:46;;;;;;;19.98;12.85;;;333.60;2329.60;;;;;;5084604;28;20024;-58
2023/09/28 03:34:12;;;;;;;15.55;12.25;;;333.50;2329.60;;;;;;5088225;28;20091;-58
2023/09/28 03:36:37;;;;;;;15.35;11.55;;;333.50;2329.60;;;;;;5080702;28;20020;-57
2023/09/28 03:39:03;;;;;;;14.65;11.45;;;333.50;2329.60;;;;;;5077261;28;20027;-58
2023/09/28 03:41:29;;;;;;;14.90;11.98;;;333.50;2329.60;;;;;;5088482;28;20513;-58
2023/09/28 03:43:54;;;;;;;15.32;11.38;;;333.50;2329.60;;;;;;5088500;28;20020;-58
2023/09/28 03:46:20;;;;;;;13.15;10.30;;;333.50;2329.60;;;;;;5087961;28;20027;-58
2023/09/28 03:48:46;;;;;;;15.32;11.55;;;333.50;2329.60;;;;;;5088261;28;20040;-58
2023/09/28 03:51:12;;;;;;;16.52;11.73;;;333.50;2329.60;;;;;;5088441;28;20091;-58
2023/09/28 03:53:41;;;;;;;14.82;11.07;;;333.50;2329.60;;;;;;5088491;28;20030;-58
2023/09/28 03:56:07;;;;;;;16.17;11.65;;;333.50;2329.60;;;;;;5085548;28;20032;-58
2023/09/28 03:58:33;;;;;;;17.30;11.30;;;333.50;2329.60;;;;;;5090338;28;20020;-57
2023/09/28 04:00:59;;;;;;;13.55;10.93;;;333.50;2329.60;;;;;;5091910;28;20497;-57
2023/09/28 04:03:24;;;;;;;18.88;11.35;;;333.50;2329.60;;;;;;5091519;28;20032;-58
2023/09/28 04:05:50;;;;;;;16.70;11.07;;;333.50;2329.60;;;;;;5091682;28;20066;-56
2023/09/28 04:08:16;;;;;;;14.07;11.35;;;333.50;2329.60;;;;;;5086618;28;20036;-58
2023/09/28 04:10:42;;;;;;;15.60;11.35;;;333.40;2329.60;;;;;;5070039;28;20019;-58
2023/09/28 04:13:08;;;;;;;16.48;11.15;;;333.50;2329.60;;;;;;5091610;28;20035;-58
2023/09/28 04:15:33;;;;;;;15.73;11.25;;;333.40;2329.60;;;;;;5091236;28;20028;-58
2023/09/28 04:18:00;;;;;;;17.83;12.40;;;333.50;2329.60;;;;;;5091545;28;20097;-58
2023/09/28 04:20:26;;;;;;;16.58;11.52;;;333.50;2329.60;;;;;;5088218;28;20056;-58
2023/09/28 04:22:52;;;;;;;15.20;11.25;;;333.50;2329.60;;;;;;5081325;28;20034;-58
2023/09/28 04:25:19;;;;;;;17.77;12.40;;;333.40;2329.60;;;;;;5091112;28;20681;-58
2023/09/28 04:27:46;;;;;;;20.98;13.48;;;333.40;2329.60;;;;;;5091327;28;20024;-58
2023/09/28 04:30:12;;;;;;;19.42;13.77;;;333.40;2329.60;;;;;;5091245;28;20069;-57
2023/09/28 04:32:38;;;;;;;19.67;14.00;;;333.40;2329.60;;;;;;5091534;28;20078;-59
2023/09/28 04:35:06;;;;;;;19.27;13.07;;;333.30;2329.60;;;;;;5091208;28;20417;-58
2023/09/28 04:37:32;;;;;;;19.85;13.63;;;333.50;2329.60;;;;;;5091579;28;20087;-57
2023/09/28 04:39:58;;;;;;;25.77;13.45;;;333.40;2329.60;;;;;;5090586;28;20106;-58
2023/09/28 04:42:23;;;;;;;17.30;12.45;;;333.70;2329.60;;;;;;5079899;28;20112;-58
2023/09/28 04:44:49;;;;;;;16.48;12.75;;;333.40;2329.60;;;;;;5080064;28;20462;-58
2023/09/28 04:47:15;;;;;;;19.10;12.30;;;333.40;2329.60;;;;;;5090941;28;20036;-58
2023/09/28 04:49:41;;;;;;;20.83;12.82;;;333.40;2329.60;;;;;;5090881;28;20024;-57
2023/09/28 04:52:09;;;;;;;16.17;13.05;;;333.40;2329.60;;;;;;5091163;28;20024;-58
2023/09/28 04:54:35;;;;;;;16.10;12.13;;;333.40;2329.60;;;;;;5090293;28;20028;-58
2023/09/28 04:57:01;;;;;;;17.67;11.82;;;333.50;2329.60;;;;;;5091212;28;20020;-58
2023/09/28 04:59:27;;;;;;;16.50;11.73;;;333.60;2329.60;;;;;;5090784;28;20032;-58
2023/09/28 05:01:53;;;;;;;17.20;11.57;;;333.60;2329.60;;;;;;5090715;28;20051;-58
2023/09/28 05:04:18;;;;;;;15.65;10.75;;;333.70;2329.60;;;;;;5090040;28;20024;-58
2023/09/28 05:06:44;;;;;;;17.10;10.43;;;358.40;2329.60;;;;;;5090995;28;20088;-58
2023/09/28 05:09:13;;;;;;;16.52;11.85;;;358.40;2329.60;;;;;;5085361;28;20024;-57
2023/09/28 05:11:39;;;;;;;14.68;10.73;;;358.50;2329.60;;;;;;5082367;28;20487;-56
2023/09/28 05:14:05;;;;;;;14.57;10.68;;;358.50;2329.60;;;;;;5080279;28;20032;-56
2023/09/28 05:16:31;;;;;;;19.13;13.48;;;358.40;2329.60;;;;;;5080814;28;20028;-57
2023/09/28 05:18:57;;;;;;;20.60;13.90;;;358.40;2329.60;;;;;;5078314;28;20048;-57
2023/09/28 05:21:24;;;;;;;16.75;12.48;;;358.40;2329.60;;;;;;5084008;28;20035;-57
2023/09/28 05:23:50;;;;;;;15.90;11.07;;;358.50;2329.60;;;;;;5076516;28;20059;-57
2023/09/28 05:26:16;;;;;;;14.25;10.73;;;358.70;2329.60;;;;;;5081999;28;20415;-56
2023/09/28 05:28:42;;;;;;;16.98;11.95;;;358.80;2329.60;;;;;;5077062;28;20048;-58
2023/09/28 05:31:08;;;;;;;15.73;11.38;;;358.90;2329.60;;;;;;5084345;28;20101;-57
2023/09/28 05:33:34;;;;;;;16.73;10.90;;;359.00;2329.60;;;;;;5078332;28;20041;-58
2023/09/28 05:36:00;;;;;;;17.30;9.80;;;359.10;2329.60;;;;;;5083403;28;20039;-58
2023/09/28 05:38:25;;;;;;;18.45;12.02;;;359.10;2329.60;;;;;;5089963;28;20111;-57
2023/09/28 05:40:51;;;;;;;14.77;11.43;;;359.10;2329.60;;;;;;5086197;28;20032;-57
2023/09/28 05:43:17;;;;;;;18.33;10.88;;;359.30;2329.60;;;;;;5083130;28;20046;-56
2023/09/28 05:45:42;;;;;;;20.60;13.23;;;359.30;2329.60;;;;;;5081768;28;20536;-58
2023/09/28 05:48:08;;;;;;;16.77;12.00;;;384.00;2329.60;;;;;;5083933;28;20044;-58
2023/09/28 05:50:34;;;;;;;19.52;13.45;;;384.00;2329.60;;;;;;5087163;28;20016;-57
2023/09/28 05:53:00;;;;;;;19.85;11.52;;;384.10;2329.60;;;;;;5074465;28;20060;-57
2023/09/28 05:55:26;;;;;;;14.15;11.43;;;384.30;2329.60;;;;;;5065635;28;20028;-58
2023/09/28 05:57:55;;;;;;;23.73;12.50;;;384.30;2329.60;;;;;;5078560;28;20069;-57
2023/09/28 06:00:21;;;;;;;15.35;12.73;;;384.60;2329.60;;;;;;5079801;28;20060;-58
2023/09/28 06:02:47;;;;;;;18.05;11.88;;;460.80;2380.80;;;;;;5077117;28;20510;-58
2023/09/28 06:05:12;;;;;;;18.10;12.98;;;512.10;2380.80;;;;;;5074005;28;20039;-59
2023/09/28 06:07:38;;;;;;;17.98;13.25;;;563.60;2432.00;;;;;;5076465;28;20016;-57
2023/09/28 06:10:08;;;;;;;14.38;12.88;;;615.00;2252.80;;;;;;5079700;28;20031;-59
2023/09/28 06:12:34;;;;;;;15.02;12.00;;;665.90;2048.00;;;;;;5071037;28;20559;-59
2023/09/28 06:15:00;;;;;;;13.73;11.90;;;691.70;1894.40;;;;;;5082618;28;20029;-58
2023/09/28 06:17:26;;;;;;;16.40;11.98;;;716.90;1792.00;;;;;;5070217;28;20077;-57
2023/09/28 06:19:51;;;;;;;19.20;13.27;;;717.10;1792.00;;;;;;5078491;28;20497;-57
2023/09/28 06:22:17;;;;;;;15.02;12.45;;;717.10;1792.00;;;;;;5082402;28;20036;-58
2023/09/28 06:24:43;;;;;;;20.98;15.02;;;742.60;1740.80;;;;;;5069523;28;20537;-60
2023/09/28 06:27:09;;;;;;;13.40;11.95;;;743.10;1689.60;;;;;;5083066;28;20106;-59
2023/09/28 06:29:34;;;;;;;13.75;11.80;;;768.70;1612.80;;;;;;5089146;28;20032;-58
2023/09/28 06:32:01;;;;;;;12.95;11.38;;;768.70;1612.80;;;;;;5076653;28;20035;-58
2023/09/28 06:34:27;;;;;;;14.13;11.23;;;793.60;1612.80;;;;;;5068646;28;20131;-60
2023/09/28 06:36:53;;;;;;;13.10;11.93;;;794.20;1587.20;;;;;;5078034;28;20580;-59
2023/09/28 06:39:19;;;;;;;14.55;11.52;;;794.00;1561.60;;;;;;5072142;28;20029;-63
2023/09/28 06:41:45;;;;;;;12.77;11.60;;;819.30;1536.00;;;;;;5081770;28;20123;-61
2023/09/28 06:44:10;;;;;;;12.93;11.60;;;819.30;1510.40;;;;;;5084968;28;20158;-62
2023/09/28 06:46:37;;;;;;;14.00;12.68;;;819.90;1510.40;;;;;;5086258;28;20051;-61
2023/09/28 06:49:05;;;;;;;16.88;15.45;;;845.20;1459.20;;;;;;5087268;28;20028;-63
2023/09/28 06:51:32;;;;;;;13.65;12.35;;;820.10;1459.20;;;;;;5084590;28;20803;-62
2023/09/28 06:53:59;;;;;;;16.33;14.63;;;845.00;1484.80;;;;;;5069055;28;20028;-60
2023/09/28 06:56:26;;;;;;;20.25;17.80;;;845.40;1459.20;;;;;;5074664;28;20048;-62
2023/09/28 06:58:52;;;;;;;20.67;17.70;;;870.50;1408.00;;;;;;5076521;28;20441;-60
2023/09/28 07:01:18;;;;;;;20.35;18.20;;;870.50;1408.00;;;;;;5068742;28;20029;-63
2023/09/28 07:03:45;;;;;;;19.95;18.15;;;870.70;1408.00;;;;;;5068543;28;20027;-63
2023/09/28 07:06:10;;;;;;;24.30;20.60;;;870.70;1408.00;;;;;;5059111;28;20463;-61
2023/09/28 07:08:36;;;;;;;20.02;18.20;;;871.20;1356.80;;;;;;5061030;28;20024;-63
2023/09/28 07:11:02;;;;;;;21.27;19.00;;;870.90;1382.40;;;;;;5079333;28;20051;-62
2023/09/28 07:13:28;;;;;;;20.33;17.20;;;896.40;1356.80;;;;;;5088869;28;20537;-63
2023/09/28 07:15:56;;;;;;;19.48;17.05;;;921.60;1356.80;;;;;;5072551;28;20085;-63
2023/09/28 07:18:22;;;;;;;19.52;16.27;;;896.80;1331.20;;;;;;5067478;28;20025;-63
2023/09/28 07:20:48;;;;;;;19.73;17.63;;;871.30;1356.80;;;;;;5067315;28;20047;-62
2023/09/28 07:23:13;;;;;;;19.23;17.27;;;871.30;1356.80;;;;;;5066548;28;20094;-62
2023/09/28 07:25:40;;;;;;;16.55;14.80;;;870.70;1382.40;;;;;;5068549;28;20028;-63
2023/09/28 07:28:06;;;;;;;18.08;15.90;;;871.00;1382.40;;;;;;5080234;28;20028;-62
2023/09/28 07:30:32;;;;;;;18.67;15.82;;;896.50;1305.60;;;;;;5068515;28;20051;-61
2023/09/28 07:32:58;;;;;;;18.35;15.27;;;871.10;1356.80;;;;;;5082391;28;20606;-63
2023/09/28 07:35:23;;;;;;;17.00;15.25;;;896.80;1305.60;;;;;;5078991;28;20020;-62
2023/09/28 07:37:49;;;;;;;18.75;15.23;;;896.50;1331.20;;;;;;5081360;28;20119;-63
2023/09/28 07:40:17;;;;;;;16.20;12.93;;;922.20;1305.60;;;;;;5092324;28;20038;-64
2023/09/28 07:42:45;;;;;;;21.08;13.90;;;948.00;1254.40;;;;;;5087355;28;20115;-64
2023/09/28 07:45:13;;;;;;;14.90;13.60;;;947.80;1254.40;;;;;;5087507;28;20027;-63
2023/09/28 07:47:39;;;;;;;17.50;15.63;;;947.80;1228.80;;;;;;5079270;28;20150;-63
2023/09/28 07:50:06;;;;;;;19.77;16.65;;;973.30;1228.80;;;;;;5073953;28;20111;-61
2023/09/28 07:52:32;;;;;;;17.27;15.48;;;947.50;1254.40;;;;;;5092958;28;20081;-63
2023/09/28 07:54:58;;;;;;;18.17;14.35;;;973.60;1203.20;;;;;;5090925;28;20464;-63
2023/09/28 07:57:24;;;;;;;17.52;15.65;;;947.70;1228.80;;;;;;5065894;28;20042;-62
2023/09/28 07:59:53;;;;;;;20.50;13.57;;;998.80;1203.20;;;;;;5082109;28;20067;-62
2023/09/28 08:02:18;;;;;;;16.50;14.65;;;948.10;1203.20;;;;;;5089357;28;20032;-63
2023/09/28 08:04:44;;;;;;;16.42;13.98;;;998.90;1177.60;;;;;;5091476;28;20084;-61
2023/09/28 08:07:10;;;;;;;15.38;13.88;;;998.80;1177.60;;;;;;5089598;28;20081;-64
2023/09/28 08:09:37;;;;;;;18.02;14.52;;;999.20;1177.60;;;;;;5091872;28;20462;-64
2023/09/28 08:12:03;;;;;;;19.73;14.60;;;999.10;1152.00;;;;;;5091959;28;20028;-63
2023/09/28 08:14:29;;;;;;;17.50;14.15;;;973.70;1177.60;;;;;;5081112;28;20451;-63
2023/09/28 08:16:54;;;;;;;17.90;14.73;;;1024.10;1126.40;;;;;;5083225;28;20036;-63
2023/09/28 08:19:20;;;;;;;16.40;12.75;;;999.30;1177.60;;;;;;5080164;28;20087;-66
2023/09/28 08:21:46;;;;;;;15.30;13.35;;;1024.60;1100.80;;;;;;5086864;28;20044;-64
2023/09/28 08:24:12;;;;;;;16.67;14.70;;;1049.90;1126.40;;;;;;5091924;28;20055;-63
2023/09/28 08:26:38;;;;;;;19.73;13.10;;;1050.50;1100.80;;;;;;5079798;28;20056;-62
2023/09/28 08:29:05;;;;;;;14.25;12.80;;;999.20;1126.40;;;;;;5084227;28;20521;-65
2023/09/28 08:31:33;;;;;;;17.27;13.38;;;1049.90;1100.80;;;;;;5089699;28;20405;-64
2023/09/28 08:34:00;;;;;;;18.42;13.45;;;1049.70;1100.80;;;;;;5089860;28;20028;-65
2023/09/28 08:36:30;;;;;;;15.63;12.90;;;998.50;1152.00;;;;;;5076207;28;20158;-63
2023/09/28 08:38:56;;;;;;;18.55;13.45;;;999.30;1126.40;;;;;;5091514;28;20466;-64
2023/09/28 08:41:47;;;;;;;18.23;13.00;;;948.10;1152.00;;;;;;5084515;28;20147;-63
2023/09/28 08:44:13;;;;;;;15.43;12.25;;;921.70;1228.80;;;;;;5086558;28;20019;-65
2023/09/28 08:46:40;;;;;;;16.33;13.52;;;921.80;1228.80;;;;;;5080210;28;20493;-62
2023/09/28 08:49:08;;;;;;;22.98;14.32;;;947.60;1177.60;;;;;;5070965;28;20041;-61
2023/09/28 08:51:40;;;;;;;22.15;11.82;;;921.60;1254.40;;;;;;5083052;28;20025;-63
2023/09/28 08:54:07;;;;;;;18.98;14.18;;;896.00;1228.80;;;;;;5088551;28;20115;-61
2023/09/28 08:56:38;;;;;;;22.27;14.40;;;845.60;1331.20;;;;;;5088074;28;20051;-62
2023/09/28 08:59:05;;;;;;;15.35;10.85;;;820.10;1331.20;;;;;;5088758;28;20064;-62
2023/09/28 09:01:32;;;;;;;15.90;10.27;;;794.50;1382.40;;;;;;5087619;28;20035;-62
2023/09/28 09:03:58;;;;;;;17.45;9.82;;;793.70;1408.00;;;;;;5087221;28;20040;-65
2023/09/28 09:06:28;;;;;;;16.33;10.18;;;768.40;1433.60;;;;;;5090110;28;20032;-61
2023/09/28 09:08:59;;;;;;;20.58;9.98;;;742.40;1510.40;;;;;;5078558;28;20058;-61
2023/09/28 09:11:30;;;;;;;18.02;8.88;;;716.90;1561.60;;;;;;5078079;28;20024;-61
2023/09/28 09:13:56;;;;;;;14.85;9.07;;;716.90;1561.60;;;;;;5089008;28;20047;-60
2023/09/28 09:16:24;;;;;;;12.00;7.38;;;717.20;1536.00;;;;;;5090171;28;20028;-62
2023/09/28 09:18:53;;;;;;;19.27;8.77;;;717.20;1536.00;;;;;;5070722;28;20410;-59
2023/09/28 09:21:19;;;;;;;20.63;7.82;;;717.10;1536.00;;;;;;5078045;28;20024;-62
2023/09/28 09:24:20;;;;;;;14.00;8.13;;;692.10;1536.00;;;;;;5082552;28;20050;-61
2023/09/28 09:26:52;;;;;;;15.15;7.60;;;691.60;1561.60;;;;;;5021056;28;20041;-60
2023/09/28 09:29:19;;;;;;;14.02;7.25;;;691.60;1561.60;;;;;;5022298;28;20503;-59
2023/09/28 09:31:50;;;;;;;13.02;7.40;;;692.10;1536.00;;;;;;5039841;28;20137;-60
2023/09/28 09:34:19;;;;;;;16.95;7.80;;;691.80;1561.60;;;;;;5034801;28;20032;-59
2023/09/28 09:36:51;;;;;;;7.75;6.60;;;666.50;1587.20;;;;;;5046022;28;20119;-58
2023/09/28 09:39:25;;;;;;;7.85;6.30;;;666.30;1612.80;;;;;;5027812;28;20083;-61
2023/09/28 09:41:53;;;;;;;16.52;7.22;;;691.40;1587.20;;;;;;5037146;28;20430;-60
2023/09/28 09:44:20;;;;;;;12.52;6.80;;;691.20;1587.20;;;;;;5044442;28;20095;-59
2023/09/28 09:46:48;;;;;;;8.10;5.90;;;691.50;1561.60;;;;;;5039762;28;20053;-60
2023/09/28 09:49:18;;;;;;;9.60;5.20;;;691.20;1587.20;;;;;;5039278;28;20037;-60
2023/09/28 09:51:45;;;;;;;13.18;5.25;;;666.00;1561.60;;;;;;4994248;28;20571;-61
2023/09/28 09:54:16;;;;;;;9.20;6.40;;;666.50;1561.60;;;;;;5038553;28;20412;-61
2023/09/28 09:56:52;;;;;;;7.82;4.60;;;666.50;1612.80;;;;;;5045007;28;20075;-60
2023/09/28 09:59:21;;;;;;;10.55;5.65;;;666.20;1561.60;;;;;;5045557;28;20113;-62
2023/09/28 10:01:48;;;;;;;13.02;5.50;;;666.30;1587.20;;;;;;5057836;28;20079;-61
2023/09/28 10:04:16;;;;;;;6.63;4.97;;;666.30;1561.60;;;;;;5087739;28;20120;-61
2023/09/28 10:06:47;;;;;;;10.70;5.50;;;666.50;1561.60;;;;;;5088236;28;20020;-61
2023/09/28 10:09:16;;;;;;;7.53;5.45;;;666.30;1587.20;;;;;;5086159;28;20020;-62
2023/09/28 10:11:42;;;;;;;8.48;5.43;;;666.30;1561.60;;;;;;5088257;28;20031;-63
2023/09/28 10:14:08;;;;;;;12.23;6.28;;;691.20;1561.60;;;;;;5087633;28;20016;-62
2023/09/28 10:16:38;;;;;;;11.90;5.15;;;666.30;1587.20;;;;;;5088122;28;20423;-62
2023/09/28 10:19:05;;;;;;;8.77;5.32;;;666.20;1587.20;;;;;;5082727;28;20064;-62
2023/09/28 10:21:38;;;;;;;15.82;6.53;;;666.20;1587.20;;;;;;5073303;28;20040;-62
2023/09/28 10:24:11;;;;;;;9.52;6.57;;;666.00;1612.80;;;;;;5061332;28;20083;-61
2023/09/28 10:26:38;;;;;;;13.70;5.35;;;665.70;1587.20;;;;;;5074776;28;20070;-62
2023/09/28 10:29:09;;;;;;;13.90;5.07;;;665.90;1587.20;;;;;;5068578;28;20017;-62
2023/09/28 10:31:37;;;;;;;10.63;5.75;;;665.80;1612.80;;;;;;5073547;28;20024;-61
2023/09/28 10:34:04;;;;;;;14.70;5.93;;;666.00;1587.20;;;;;;5072511;28;20029;-62
2023/09/28 10:36:34;;;;;;;6.30;4.88;;;665.70;1638.40;;;;;;5076126;28;20016;-61
2023/09/28 10:39:09;;;;;;;10.93;4.90;;;665.70;1587.20;;;;;;5082475;28;20028;-61
2023/09/28 10:41:42;;;;;;;11.68;5.47;;;665.90;1638.40;;;;;;5069515;28;20043;-60
2023/09/28 10:44:14;;;;;;;11.23;4.95;;;665.90;1612.80;;;;;;5069169;28;20040;-61
2023/09/28 10:46:49;;;;;;;9.80;5.68;;;665.80;1612.80;;;;;;5079683;28;20062;-60
2023/09/28 10:49:24;;;;;;;10.10;5.57;;;665.70;1638.40;;;;;;5070624;28;20107;-61
2023/09/28 10:51:51;;;;;;;13.80;5.68;;;665.90;1638.40;;;;;;5069058;28;20020;-61
2023/09/28 10:54:17;;;;;;;10.52;4.53;;;666.00;1638.40;;;;;;5088751;28;20024;-60
2023/09/28 10:56:43;;;;;;;11.60;5.20;;;665.90;1638.40;;;;;;5080346;28;20115;-59
2023/09/28 10:59:11;;;;;;;10.10;5.35;;;666.00;1638.40;;;;;;5075860;28;20115;-59
2023/09/28 11:01:45;;;;;;;9.63;5.60;;;665.90;1612.80;;;;;;5075696;28;20072;-59
2023/09/28 11:04:12;;;;;;;8.48;5.45;;;665.90;1612.80;;;;;;5078192;28;20081;-60
2023/09/28 11:06:49;;;;;;;10.05;5.72;;;665.60;1638.40;;;;;;5079409;28;20534;-60
2023/09/28 11:09:19;;;;;;;11.07;6.15;;;665.80;1638.40;;;;;;5088357;28;20374;-61
2023/09/28 11:11:45;;;;;;;9.85;5.60;;;666.20;1612.80;;;;;;5087179;28;20539;-61
2023/09/28 11:14:11;;;;;;;14.43;5.88;;;666.30;1612.80;;;;;;5088181;28;20020;-60
2023/09/28 11:16:41;;;;;;;9.55;5.78;;;666.20;1587.20;;;;;;5077138;28;20029;-60
2023/09/28 11:19:09;;;;;;;11.88;5.97;;;666.30;1612.80;;;;;;5087625;28;20060;-60
2023/09/28 11:21:34;;;;;;;8.65;6.00;;;666.20;1612.80;;;;;;5083350;28;20107;-61
2023/09/28 11:24:02;;;;;;;12.25;5.22;;;666.00;1612.80;;;;;;5088306;28;20039;-61
2023/09/28 11:26:29;;;;;;;9.82;5.85;;;666.10;1612.80;;;;;;5076712;28;20068;-60
2023/09/28 11:28:57;;;;;;;17.50;6.50;;;666.00;1612.80;;;;;;5086660;28;20029;-60
2023/09/28 11:31:23;;;;;;;12.93;6.72;;;665.80;1638.40;;;;;;5088790;28;20035;-60
2023/09/28 11:33:49;;;;;;;9.27;5.60;;;665.90;1638.40;;;;;;5072559;28;20382;-61
2023/09/28 11:36:21;;;;;;;8.07;5.18;;;666.00;1612.80;;;;;;5076871;28;20381;-60
2023/09/28 11:38:48;;;;;;;7.97;5.68;;;666.00;1587.20;;;;;;5085470;28;20048;-60
2023/09/28 11:41:14;;;;;;;9.35;5.72;;;666.20;1587.20;;;;;;5086299;28;20135;-59
2023/09/28 11:43:48;;;;;;;12.13;6.03;;;666.40;1587.20;;;;;;5075437;28;20028;-61
2023/09/28 11:46:25;;;;;;;8.05;4.85;;;666.30;1587.20;;;;;;5067965;28;20021;-59
2023/09/28 11:49:06;;;;;;;9.60;5.13;;;666.20;1587.20;;;;;;5071262;28;20037;-59
2023/09/28 11:51:33;;;;;;;7.38;5.45;;;666.20;1561.60;;;;;;5068356;28;20351;-60
2023/09/28 11:54:00;;;;;;;10.88;5.57;;;666.30;1587.20;;;;;;5078757;28;20025;-61
2023/09/28 11:56:27;;;;;;;8.45;5.85;;;666.20;1536.00;;;;;;5086810;28;20077;-61
2023/09/28 11:58:53;;;;;;;7.72;4.47;;;666.20;1561.60;;;;;;5088714;28;20027;-61
2023/09/28 12:01:19;;;;;;;11.95;5.47;;;666.20;1536.00;;;;;;5088310;28;20031;-60
2023/09/28 12:03:48;;;;;;;12.27;4.88;;;666.10;1510.40;;;;;;5088248;28;20058;-61